»·PEaware :: N1XC KSNA-KCRQ

N1XC :: KSNA-KCRQ

FLIGHT INFORMATION

Flight Status: Arrived
Operator: Privately registered:
United States
More flights under this callsign
Pilot: Adam S. (8156)
Aircraft: CESSNA 172 SKYHAWK
(C172)
More flights by this aircraft type
Origin: KSNA John Wayne-Orange Co
United States
Destination: KCRQ McClellan-Palomar
United States
More flights between these airports :: More routes between these airports
Route: +V23 OCN KCRQ
File this flight plan on PilotEdge
Remarks: I-2 Rating
Altitude:
(Current/Filed)
5,000ft
Speed:
(Current/Filed)
125kts
Departed: 04-Feb-18 08:41 PM
Arrived: 04-Feb-18 09:20 PM
Distance/Time
Traveled:
44nm/0:39
Distance/Time
To Go:
Arrived

Flight Plot

Page will automatically refresh every two minutes.

Flight plan parsing failed; only flown route is shown


Map Options




Map Legend


Flown Route
Filed Route
Departure Airport
Arrival Airport
Navaid (VOR, NDB)
Fix

Horizontal Profiles

Position Reports

Time Latitude Longitude Heading Altitude Ground
Speed
04-Feb-18 20:29 33.671520 -117.867198 26 60ft 0kts
04-Feb-18 20:29 33.671520 -117.867198 26 60ft 0kts
04-Feb-18 20:30 33.671520 -117.867198 26 60ft 0kts
04-Feb-18 20:31 33.671520 -117.867198 26 60ft 0kts
04-Feb-18 20:33 33.671520 -117.867198 26 60ft 0kts
04-Feb-18 20:33 33.671520 -117.867198 26 60ft 0kts
04-Feb-18 20:34 33.671520 -117.867198 26 60ft 0kts
04-Feb-18 20:35 33.671520 -117.867198 26 60ft 0kts
04-Feb-18 20:36 33.671520 -117.867198 26 60ft 0kts
04-Feb-18 20:37 33.671520 -117.867198 26 60ft 0kts
04-Feb-18 20:38 33.671520 -117.867198 26 60ft 0kts
04-Feb-18 20:39 33.671520 -117.867198 26 60ft 0kts
04-Feb-18 20:40 33.671520 -117.867198 26 60ft 0kts
04-Feb-18 20:41 33.672673 -117.867767 4 60ft 9kts
04-Feb-18 20:42 33.675211 -117.866377 29 60ft 11kts
04-Feb-18 20:43 33.677811 -117.864712 27 60ft 13kts
04-Feb-18 20:44 33.679934 -117.863566 300 60ft 0kts
04-Feb-18 20:45 33.679934 -117.863566 300 60ft 0kts
04-Feb-18 20:46 33.679934 -117.863566 300 60ft 0kts
04-Feb-18 20:47 33.671263 -117.870029 209 387ft 77kts
04-Feb-18 20:48 33.651262 -117.874334 184 1488ft 77kts
04-Feb-18 20:49 33.629347 -117.877018 184 2512ft 80kts
04-Feb-18 20:50 33.606607 -117.879807 184 3476ft 83kts
04-Feb-18 20:51 33.583296 -117.882691 184 4396ft 85kts
04-Feb-18 20:52 33.559891 -117.879415 122 4988ft 111kts
04-Feb-18 20:53 33.546945 -117.841031 110 4984ft 129kts
04-Feb-18 20:54 33.533866 -117.800529 110 4983ft 130kts
04-Feb-18 20:55 33.520740 -117.759871 110 4983ft 130kts
04-Feb-18 20:56 33.497096 -117.727034 133 4983ft 130kts
04-Feb-18 20:57 33.471755 -117.695898 133 4983ft 130kts
04-Feb-18 20:58 33.446267 -117.664846 134 4983ft 130kts
04-Feb-18 20:59 33.421034 -117.634289 134 4983ft 127kts
04-Feb-18 21:00 33.396320 -117.604427 132 4983ft 127kts
04-Feb-18 21:01 33.371765 -117.574754 132 4983ft 123kts
04-Feb-18 21:02 33.347632 -117.545612 132 4983ft 123kts
04-Feb-18 21:03 33.323527 -117.516537 132 4983ft 123kts
04-Feb-18 21:04 33.299378 -117.487439 132 4983ft 123kts
04-Feb-18 21:05 33.275196 -117.458330 132 4983ft 123kts
04-Feb-18 21:06 33.251045 -117.429292 132 4983ft 123kts
04-Feb-18 21:07 33.239727 -117.394453 80 4983ft 123kts
04-Feb-18 21:08 33.244984 -117.353311 80 4983ft 126kts
04-Feb-18 21:09 33.250259 -117.312065 81 4983ft 126kts
04-Feb-18 21:10 33.255564 -117.270619 81 4983ft 126kts
04-Feb-18 21:11 33.260867 -117.229222 81 4983ft 126kts
04-Feb-18 21:12 33.266153 -117.188009 81 5003ft 125kts
04-Feb-18 21:13 33.271455 -117.146689 81 5010ft 126kts
04-Feb-18 21:14 33.276802 -117.105046 80 5010ft 126kts
04-Feb-18 21:15 33.271508 -117.066927 154 5005ft 126kts
04-Feb-18 21:16 33.237024 -117.052383 160 4624ft 136kts
04-Feb-18 21:17 33.201054 -117.037678 160 4012ft 136kts
04-Feb-18 21:18 33.165434 -117.024269 181 3511ft 129kts
04-Feb-18 21:19 33.155282 -117.057573 275 3510ft 120kts
04-Feb-18 21:20 33.158561 -117.097198 267 3496ft 121kts
04-Feb-18 21:21 33.150231 -117.138893 258 2955ft 137kts
04-Feb-18 21:22 33.143692 -117.183998 259 1866ft 134kts
04-Feb-18 21:23 33.137255 -117.224301 260 1202ft 117kts
04-Feb-18 21:24 33.132621 -117.253535 256 671ft 73kts
04-Feb-18 21:25 33.129051 -117.275177 256 298ft 54kts
04-Feb-18 21:26 33.127798 -117.279641 224 297ft 0kts
04-Feb-18 21:27 33.127032 -117.282644 257 297ft 13kts
04-Feb-18 21:28 33.125945 -117.283290 71 297ft 0kts
04-Feb-18 21:29 33.125945 -117.283290 71 297ft 0kts
04-Feb-18 21:30 33.125945 -117.283290 71 297ft 0kts
04-Feb-18 21:31 33.125945 -117.283290 71 297ft 0kts
04-Feb-18 21:32 33.125945 -117.283290 71 297ft 0kts
04-Feb-18 21:33 33.125945 -117.283290 71 297ft 0kts
04-Feb-18 21:34 33.125945 -117.283290 71 297ft 0kts
04-Feb-18 21:35 33.125945 -117.283290 71 297ft 0kts
04-Feb-18 21:36 33.125945 -117.283290 71 297ft 0kts

Navigation Log

Ident Type
Flight plan parsing failed, navigation log unavailable